Time;durP1;ratioP1;P1;durP2;ratioP2;P2;SDS_P1;SDS_P2;PMS_P1;PMS_P2;Temp;Humidity;BMP_temperature;BMP_pressure;BME280_temperature;BME280_humidity;BME280_pressure;Samples;Min_cycle;Max_cycle;Signal;HPM_P1;HPM_P2
2021/01/22 00:00:00;;;;;;;;;2.75;2.00;19.90;60.30;;;19.20;45.10;101451.19;5009288;28;8833;-54
2021/01/22 00:02:27;;;;;;;;;1.75;1.75;19.90;58.90;;;19.18;43.79;101445.97;5020757;28;8778;-54
2021/01/22 00:04:53;;;;;;;;;2.50;2.50;20.00;58.30;;;19.17;43.98;101446.97;5031008;28;8768;-54
2021/01/22 00:07:20;;;;;;;;;2.00;2.00;19.60;57.90;;;19.20;43.11;101435.13;5010377;28;9013;-56
2021/01/22 00:09:47;;;;;;;;;2.50;2.50;19.70;58.40;;;19.22;43.85;101451.91;5021407;28;8801;-54
2021/01/22 00:12:14;;;;;;;;;3.00;2.75;19.70;57.90;;;19.20;44.04;101443.16;5019823;28;8793;-55
2021/01/22 00:14:41;;;;;;;;;2.75;2.75;19.80;57.20;;;19.20;43.80;101449.34;5014891;28;8825;-54
2021/01/22 00:17:07;;;;;;;;;3.75;3.75;19.80;57.50;;;19.23;44.05;101457.13;5002572;28;8824;-53
2021/01/22 00:19:34;;;;;;;;;4.00;4.00;19.70;58.00;;;19.22;45.01;101439.34;5017772;28;8848;-54
2021/01/22 00:22:01;;;;;;;;;2.50;2.50;20.00;60.40;;;19.20;44.64;101429.75;5023567;28;8984;-54
2021/01/22 00:24:28;;;;;;;;;4.25;3.75;19.90;59.10;;;19.20;44.51;101441.31;5027713;28;9523;-61
2021/01/22 00:26:55;;;;;;;;;7.25;6.25;19.80;60.30;;;19.19;43.77;101428.91;5024182;28;8863;-62
2021/01/22 00:29:21;;;;;;;;;5.00;5.00;19.90;59.60;;;19.20;44.18;101421.72;5027120;28;8822;-62
2021/01/22 00:31:48;;;;;;;;;4.25;3.75;19.90;60.00;;;19.20;44.35;101429.75;5020612;28;8804;-61
2021/01/22 00:34:15;;;;;;;;;3.75;3.75;19.90;59.90;;;19.21;43.98;101437.66;5025629;28;8846;-61
2021/01/22 00:36:42;;;;;;;;;4.25;4.25;19.90;59.30;;;19.17;41.71;101425.53;5023340;28;8795;-62
2021/01/22 00:39:27;;;;;;;;;7.50;5.50;19.80;57.40;;;19.19;41.63;101430.75;5020192;28;8833;-61
2021/01/22 00:41:54;;;;;;;;;3.75;3.75;20.10;57.40;;;19.20;42.25;101444.00;5024921;28;8821;-61
2021/01/22 00:44:20;;;;;;;;;5.25;5.25;19.80;57.90;;;19.19;41.79;101439.63;5021558;28;8888;-61
2021/01/22 00:46:47;;;;;;;;;5.75;5.75;20.00;58.60;;;19.18;42.26;101443.28;5019724;28;9518;-61
2021/01/22 00:49:14;;;;;;;;;7.25;6.25;20.10;58.50;;;19.21;43.72;101444.81;5020516;28;8866;-62
2021/01/22 00:51:41;;;;;;;;;7.25;7.00;20.00;59.10;;;19.21;43.68;101440.34;5025595;28;8831;-61
2021/01/22 00:54:08;;;;;;;;;8.00;7.50;20.00;59.10;;;19.21;44.17;101450.19;5022379;28;8792;-58
2021/01/22 00:56:34;;;;;;;;;7.50;6.75;20.00;59.80;;;19.23;44.36;101435.69;5027917;28;8798;-62
2021/01/22 00:59:01;;;;;;;;;8.25;7.25;19.90;60.10;;;19.23;43.90;101442.84;5024456;28;9513;-63
2021/01/22 01:01:28;;;;;;;;;7.50;6.75;20.00;59.90;;;19.22;44.33;101449.22;5022655;28;8794;-61
2021/01/22 01:03:55;;;;;;;;;9.25;7.75;20.00;60.00;;;19.21;43.92;101453.75;5029446;28;8965;-62
2021/01/22 01:06:22;;;;;;;;;7.75;7.75;20.00;60.10;;;19.21;43.45;101461.78;5029179;28;8776;-60
2021/01/22 01:08:48;;;;;;;;;8.75;8.25;20.10;60.00;;;19.20;43.52;101467.25;5026758;28;8798;-61
2021/01/22 01:11:15;;;;;;;;;8.50;8.50;20.00;59.90;;;19.19;43.56;101465.56;5024841;28;8798;-62
2021/01/22 01:13:42;;;;;;;;;7.50;7.00;19.90;59.90;;;19.22;44.01;101465.28;5028665;28;8827;-59
2021/01/22 01:16:10;;;;;;;;;7.75;7.75;19.80;60.00;;;19.21;43.98;101472.50;5031814;28;8849;-61
2021/01/22 01:18:36;;;;;;;;;6.50;6.00;20.00;60.20;;;19.23;44.61;101470.53;5022410;28;8795;-58
2021/01/22 01:21:04;;;;;;;;;9.50;9.00;19.90;60.50;;;19.22;44.60;101467.97;5019640;28;8812;-63
2021/01/22 01:23:31;;;;;;;;;8.50;8.50;20.00;60.70;;;19.24;44.22;101464.16;5025449;28;8853;-61
2021/01/22 01:25:58;;;;;;;;;9.25;9.25;19.90;60.30;;;19.21;44.10;101453.75;5020665;28;8843;-61
2021/01/22 01:28:25;;;;;;;;;8.00;7.75;19.80;60.20;;;19.22;43.86;101462.59;5023445;28;8880;-60
2021/01/22 01:30:52;;;;;;;;;8.25;7.75;20.00;60.20;;;19.22;43.94;101460.78;5009798;28;8786;-61
2021/01/22 01:33:19;;;;;;;;;8.75;8.25;19.90;60.20;;;19.20;43.96;101462.75;5025403;28;8821;-62
2021/01/22 01:35:46;;;;;;;;;8.00;7.25;19.90;60.10;;;19.22;44.46;101454.56;5034422;28;8816;-62
2021/01/22 01:38:13;;;;;;;;;8.25;8.25;19.90;60.50;;;19.23;44.33;101457.13;5033194;28;9475;-61
2021/01/22 01:40:39;;;;;;;;;7.00;7.00;19.90;60.50;;;19.21;44.16;101450.19;5032687;28;8817;-62
2021/01/22 01:43:06;;;;;;;;;8.00;8.00;19.90;60.30;;;19.21;44.34;101453.75;5030615;28;8833;-60
2021/01/22 01:45:36;;;;;;;;;9.00;8.25;20.00;60.50;;;19.22;44.34;101455.41;5026769;28;8780;-60
2021/01/22 01:48:03;;;;;;;;;9.00;9.00;19.90;60.60;;;19.19;44.21;101446.84;5027692;28;8913;-61
2021/01/22 01:50:30;;;;;;;;;8.25;8.25;19.90;60.30;;;19.18;44.28;101445.97;5015279;28;8827;-61
2021/01/22 01:52:57;;;;;;;;;7.50;7.50;19.90;60.60;;;19.18;44.72;101454.00;5029047;28;8903;-57
2021/01/22 01:55:24;;;;;;;;;6.75;6.75;19.90;60.90;;;19.22;44.90;101462.59;5034326;28;8782;-60
2021/01/22 01:57:51;;;;;;;;;7.50;7.50;19.90;61.00;;;19.20;44.78;101453.88;5032508;28;8901;-60
2021/01/22 02:00:18;;;;;;;;;9.00;8.50;19.70;60.50;;;19.19;44.46;101447.66;5038028;28;8848;-61
2021/01/22 02:02:46;;;;;;;;;9.75;8.75;19.90;60.50;;;19.20;44.20;101451.19;5013790;28;8826;-60
2021/01/22 02:05:13;;;;;;;;;6.75;6.25;19.80;60.60;;;19.17;44.38;101446.97;5028813;28;8900;-60
2021/01/22 02:07:40;;;;;;;;;7.25;7.25;19.90;60.50;;;19.19;44.14;101462.91;5030247;28;8824;-59
2021/01/22 02:10:08;;;;;;;;;6.50;6.50;19.80;60.30;;;19.17;44.26;101463.03;5028424;28;8895;-62
2021/01/22 02:12:37;;;;;;;;;7.50;7.50;19.80;60.10;;;19.17;44.04;101471.06;5024130;28;8800;-60
2021/01/22 02:15:07;;;;;;;;;7.75;7.25;20.00;60.10;;;19.19;43.97;101478.97;5011599;28;8864;-60
2021/01/22 02:17:35;;;;;;;;;7.75;6.75;19.90;60.20;;;19.20;43.97;101467.25;5013355;28;8778;-60
2021/01/22 02:20:23;;;;;;;;;7.25;7.25;20.00;60.30;;;19.16;44.38;101460.47;5020980;28;9578;-59
2021/01/22 02:22:52;;;;;;;;;6.75;6.25;19.80;60.30;;;19.20;44.57;101460.06;5021677;28;9640;-58
2021/01/22 02:25:30;;;;;;;;;8.00;8.00;19.90;60.70;;;19.22;44.18;101476.00;5022175;28;8820;-59
2021/01/22 02:27:57;;;;;;;;;7.75;7.75;19.70;60.30;;;19.24;44.59;101474.03;5008241;28;8811;-58
2021/01/22 02:30:24;;;;;;;;;7.00;7.00;19.80;60.50;;;19.23;44.36;101481.22;5021851;28;8805;-58
2021/01/22 02:32:51;;;;;;;;;8.00;8.00;19.90;60.50;;;19.23;44.72;101480.34;5026262;28;8794;-59
2021/01/22 02:35:22;;;;;;;;;7.75;7.75;19.80;60.70;;;19.24;44.80;101485.59;5017985;28;8785;-58
2021/01/22 02:37:51;;;;;;;;;8.00;8.00;19.80;60.50;;;19.24;44.52;101493.63;5011082;28;8928;-59
2021/01/22 02:40:19;;;;;;;;;10.25;9.75;20.00;60.70;;;19.24;44.57;101488.28;5021483;28;8788;-58
2021/01/22 02:42:50;;;;;;;;;7.50;6.75;19.80;60.60;;;19.23;44.73;101480.34;5015342;28;8804;-59
2021/01/22 02:45:18;;;;;;;;;6.00;5.75;20.10;60.90;;;19.23;44.78;101473.19;5021619;28;8930;-59
2021/01/22 02:47:51;;;;;;;;;7.00;7.00;19.90;60.80;;;19.20;44.66;101470.78;5022480;28;8802;-62
2021/01/22 02:50:29;;;;;;;;;2.75;2.75;19.90;60.80;;;19.20;44.32;101461.91;5013261;28;8783;-60
2021/01/22 02:53:06;;;;;;;;;6.25;6.25;19.90;60.80;;;19.18;44.07;101461.19;5029039;28;8806;-62
2021/01/22 02:55:36;;;;;;;;;5.25;5.25;19.60;60.40;;;19.18;44.19;101456.66;5020384;28;8890;-61
2021/01/22 02:58:21;;;;;;;;;4.75;4.75;19.80;60.40;;;19.15;44.04;101450.75;5024908;28;8794;-61
2021/01/22 03:00:52;;;;;;;;;8.25;7.25;20.00;60.40;;;19.17;44.00;101452.31;5029773;28;8792;-62
2021/01/22 03:04:01;;;;;;;;;6.75;6.75;19.90;60.50;;;19.15;43.90;101448.09;5000488;28;8820;-61
2021/01/22 03:06:34;;;;;;;;;7.00;5.00;19.70;60.60;;;19.17;44.94;101454.16;4951739;28;8843;-59
2021/01/22 03:09:02;;;;;;;;;4.50;4.50;19.70;61.10;;;19.20;45.08;101449.34;4956552;28;8784;-59
2021/01/22 03:11:32;;;;;;;;;5.75;4.50;19.80;60.80;;;19.22;45.07;101460.78;4997558;28;8806;-59
2021/01/22 03:14:04;;;;;;;;;5.00;5.00;19.70;60.80;;;19.20;44.30;101469.94;5020009;28;8802;-59
2021/01/22 03:16:34;;;;;;;;;5.25;5.25;19.80;60.50;;;19.21;44.46;101469.81;5027273;28;8875;-59
2021/01/22 03:19:05;;;;;;;;;5.00;5.00;19.80;60.40;;;19.20;44.55;101477.97;5015606;28;9500;-59
2021/01/22 03:21:32;;;;;;;;;6.50;5.75;19.70;60.10;;;19.21;44.33;101476.97;5029443;28;8772;-59
2021/01/22 03:24:00;;;;;;;;;6.75;6.25;19.90;60.30;;;19.20;44.57;101468.09;5028599;28;8826;-59
2021/01/22 03:26:27;;;;;;;;;3.75;3.75;20.00;60.20;;;19.20;44.25;101468.09;5023845;28;8778;-58
2021/01/22 03:28:53;;;;;;;;;5.75;5.75;19.90;60.40;;;19.20;43.93;101465.41;5026988;28;8801;-59
2021/01/22 03:31:20;;;;;;;;;5.50;5.00;19.80;60.20;;;19.20;44.61;101461.91;5025345;28;8804;-59
2021/01/22 03:33:47;;;;;;;;;7.00;5.75;19.90;60.60;;;19.21;44.34;101469.81;5017665;28;8801;-59
2021/01/22 03:36:15;;;;;;;;;5.50;5.50;19.80;60.60;;;19.20;44.55;101478.81;5024899;28;8782;-58
2021/01/22 03:38:43;;;;;;;;;7.25;6.00;19.80;60.50;;;19.20;44.41;101477.97;4996328;28;9548;-59
2021/01/22 03:41:10;;;;;;;;;5.00;4.00;19.80;60.50;;;19.17;44.60;101468.38;5019602;28;8937;-59
2021/01/22 03:43:37;;;;;;;;;3.50;3.50;19.90;60.40;;;19.15;44.17;101466.84;5030098;28;8919;-59
2021/01/22 03:46:04;;;;;;;;;2.25;2.25;19.60;60.30;;;19.15;44.14;101465.00;5023051;28;8851;-59
2021/01/22 03:48:30;;;;;;;;;2.50;2.50;19.70;60.90;;;19.16;44.63;101468.50;5021752;28;8805;-59
2021/01/22 03:50:57;;;;;;;;;6.00;3.75;19.80;60.70;;;19.23;44.66;101459.81;5031836;28;8837;-59
2021/01/22 03:53:24;;;;;;;;;8.00;7.00;20.10;60.50;;;19.31;44.78;101467.13;5020421;28;8896;-58
2021/01/22 03:55:51;;;;;;;;;6.50;6.50;20.20;60.20;;;19.40;44.86;101465.44;5021340;28;8886;-58
2021/01/22 03:58:18;;;;;;;;;2.50;2.50;20.50;60.20;;;19.45;44.50;101469.34;5024089;28;8795;-59
2021/01/22 04:00:45;;;;;;;;;1.25;1.25;20.60;59.80;;;19.53;44.67;101468.66;5021847;28;8801;-58
2021/01/22 04:03:11;;;;;;;;;0.25;0.25;20.70;59.70;;;19.58;44.68;101460.19;5014896;28;8816;-59
2021/01/22 04:05:38;;;;;;;;;0.00;0.00;20.80;59.60;;;19.66;44.77;101461.16;5014393;28;9433;-59
2021/01/22 04:08:06;;;;;;;;;0.00;0.00;20.90;59.60;;;19.72;44.78;101463.28;5031078;28;8790;-59
2021/01/22 04:10:33;;;;;;;;;0.00;0.00;20.90;59.40;;;19.79;44.91;101458.19;5032079;28;8785;-59
2021/01/22 04:13:00;;;;;;;;;0.00;0.00;20.80;59.40;;;19.86;44.89;101461.97;5025130;28;8883;-59
2021/01/22 04:15:27;;;;;;;;;0.00;0.00;21.20;59.70;;;19.91;45.16;101461.56;5014842;28;8811;-59
2021/01/22 04:17:53;;;;;;;;;0.00;0.00;21.40;59.90;;;19.97;45.45;101455.59;5028624;28;8817;-59
2021/01/22 04:20:21;;;;;;;;;0.00;0.00;21.30;60.10;;;20.05;45.55;101447.69;5025249;28;8896;-59
2021/01/22 04:22:51;;;;;;;;;1.40;0.60;21.40;60.30;;;20.07;45.73;101444.84;5017907;28;8815;-59
2021/01/22 04:25:19;;;;;;;;;0.00;0.00;21.40;60.10;;;20.06;45.65;101454.72;5020358;28;8769;-59
2021/01/22 04:27:47;;;;;;;;;0.00;0.00;21.50;60.30;;;20.01;45.44;101457.00;5025155;28;8822;-59
2021/01/22 04:30:14;;;;;;;;;0.00;0.00;21.20;60.10;;;20.00;45.59;101473.22;5031085;28;8794;-59
2021/01/22 04:32:41;;;;;;;;;0.40;0.40;20.90;60.90;;;20.02;45.82;101472.09;5035161;28;9499;-58
2021/01/22 04:35:13;;;;;;;;;0.00;0.00;21.10;61.20;;;20.05;45.96;101469.13;5036108;28;8801;-59
2021/01/22 04:37:43;;;;;;;;;0.00;0.00;21.10;61.20;;;20.06;46.02;101476.19;5030298;28;9191;-59
2021/01/22 04:40:12;;;;;;;;;0.00;0.00;21.20;61.00;;;20.04;45.86;101477.31;5029068;28;8834;-59
2021/01/22 04:42:43;;;;;;;;;0.20;0.20;21.00;60.70;;;20.00;45.82;101482.16;5037564;28;8799;-59
2021/01/22 04:45:12;;;;;;;;;0.00;0.00;20.90;60.80;;;19.99;45.72;101490.31;5017395;28;8830;-59
2021/01/22 04:47:41;;;;;;;;;1.75;1.75;21.00;61.10;;;19.93;46.92;101481.88;5027447;28;8803;-58
2021/01/22 04:50:10;;;;;;;;;0.40;0.00;20.90;62.60;;;19.97;46.61;101482.41;5033769;28;8806;-57
2021/01/22 04:52:38;;;;;;;;;0.00;0.00;20.80;62.10;;;19.99;46.78;101482.28;5028056;28;8809;-59
2021/01/22 04:55:08;;;;;;;;;0.00;0.00;21.20;62.00;;;19.96;46.47;101486.09;5034613;28;8835;-59
2021/01/22 04:57:46;;;;;;;;;0.40;0.00;20.80;61.60;;;19.92;46.49;101482.88;5024683;28;8905;-59
2021/01/22 05:00:15;;;;;;;;;0.00;0.00;21.00;61.90;;;19.91;47.11;101474.97;5029764;28;8802;-58
2021/01/22 05:02:42;;;;;;;;;0.00;0.00;20.90;62.50;;;19.94;46.77;101469.28;5016865;28;8846;-58
2021/01/22 05:05:10;;;;;;;;;0.00;0.00;21.00;62.20;;;19.93;46.58;101481.03;5021854;28;8883;-59
2021/01/22 05:07:37;;;;;;;;;1.60;0.00;21.00;61.90;;;19.91;46.56;101481.16;5027221;28;8804;-57
2021/01/22 05:10:05;;;;;;;;;0.00;0.00;21.10;61.80;;;19.90;46.93;101481.31;5031158;28;9507;-59
2021/01/22 05:12:43;;;;;;;;;0.00;0.00;20.80;62.20;;;19.89;46.91;101487.66;5024917;28;8806;-59
2021/01/22 05:15:14;;;;;;;;;0.00;0.00;20.90;62.40;;;19.91;46.80;101497.25;5020627;28;8858;-59
2021/01/22 05:18:02;;;;;;;;;0.00;0.00;21.00;62.20;;;19.91;46.44;101502.59;5021347;28;8804;-59
2021/01/22 05:20:42;;;;;;;;;1.40;0.80;21.10;61.90;;;19.89;46.36;101493.03;5025872;28;8878;-59
2021/01/22 05:23:11;;;;;;;;;0.00;0.00;20.90;61.80;;;19.88;47.33;101499.38;5003713;28;8828;-60
2021/01/22 05:26:05;;;;;;;;;0.00;0.00;21.00;62.80;;;19.91;46.61;101493.72;5034696;28;8813;-59
2021/01/22 05:28:42;;;;;;;;;0.00;0.00;20.90;62.10;;;19.91;46.59;101494.56;5027745;28;8838;-59
2021/01/22 05:31:11;;;;;;;;;0.00;0.00;20.90;61.70;;;19.89;46.55;101485.81;5033419;28;8777;-59
2021/01/22 05:33:40;;;;;;;;;0.00;0.00;21.00;61.70;;;19.88;46.48;101489.50;5028511;28;9935;-59
2021/01/22 05:36:30;;;;;;;;;1.00;0.00;20.80;61.60;;;19.86;46.92;101486.13;5028803;28;8770;-59
2021/01/22 05:39:02;;;;;;;;;0.00;0.00;20.80;62.50;;;19.87;46.48;101482.47;5029565;28;8783;-59
2021/01/22 05:41:29;;;;;;;;;0.00;0.00;20.80;62.20;;;19.89;46.63;101479.63;5028616;28;9506;-59
2021/01/22 05:43:57;;;;;;;;;0.80;0.00;20.90;61.80;;;19.87;46.46;101485.13;5028647;28;8826;-59
2021/01/22 05:46:28;;;;;;;;;0.00;0.00;20.80;62.20;;;19.86;46.56;101480.75;5035405;28;8802;-59
2021/01/22 05:49:10;;;;;;;;;0.00;0.00;20.70;61.70;;;19.86;46.76;101491.47;5020621;28;8821;-60
2021/01/22 05:51:36;;;;;;;;;0.00;0.00;21.00;62.60;;;19.88;46.67;101483.31;5030081;28;8891;-59
2021/01/22 05:54:04;;;;;;;;;0.00;0.00;20.80;62.10;;;19.88;46.71;101469.88;5015748;28;8777;-59
2021/01/22 05:56:31;;;;;;;;;0.00;0.00;21.00;61.90;;;19.88;46.61;101480.63;5035071;28;8802;-59
2021/01/22 05:58:58;;;;;;;;;0.00;0.00;20.80;61.60;;;19.86;46.54;101485.28;5035365;28;9546;-59
2021/01/22 06:01:28;;;;;;;;;0.00;0.00;20.90;61.70;;;19.85;46.59;101494.31;5018460;28;8941;-59
2021/01/22 06:04:16;;;;;;;;;0.00;0.00;20.80;62.20;;;19.87;46.48;101495.00;5025142;28;8824;-59
2021/01/22 06:06:43;;;;;;;;;0.00;0.00;20.80;62.00;;;19.91;46.52;101504.44;5027334;28;8863;-60
2021/01/22 06:09:10;;;;;;;;;0.00;0.00;21.10;61.80;;;19.88;46.46;101500.22;5028083;28;8879;-59
2021/01/22 06:11:39;;;;;;;;;0.00;0.00;21.00;61.60;;;19.86;46.52;101486.13;5015821;28;8864;-59
2021/01/22 06:14:07;;;;;;;;;0.00;0.00;20.90;61.60;;;19.86;46.61;101493.31;5028404;28;8809;-59
2021/01/22 06:16:36;;;;;;;;;1.00;0.00;20.90;61.90;;;19.83;46.78;101475.69;5030174;28;8813;-59
2021/01/22 06:19:06;;;;;;;;;1.00;1.00;20.80;62.10;;;19.81;46.70;101472.28;5028379;28;8818;-59
2021/01/22 06:22:17;;;;;;;;;0.00;0.00;21.00;62.50;;;19.80;46.89;101469.78;5029979;28;8810;-59
2021/01/22 06:24:45;;;;;;;;;0.00;0.00;20.70;62.50;;;19.77;46.90;101470.03;5005303;28;8868;-59
2021/01/22 06:27:13;;;;;;;;;0.00;0.00;20.70;62.60;;;19.75;46.94;101480.09;5006276;28;9601;-59
2021/01/22 06:29:44;;;;;;;;;0.00;0.00;20.50;62.50;;;19.72;46.88;101465.97;5023109;28;8853;-59
2021/01/22 06:32:12;;;;;;;;;0.00;0.00;20.60;62.60;;;19.70;46.87;101469.78;5011862;28;8812;-59
2021/01/22 06:34:40;;;;;;;;;0.00;0.00;20.60;62.70;;;19.69;47.03;101479.69;5016229;28;8895;-60
2021/01/22 06:37:09;;;;;;;;;0.00;0.00;20.50;62.70;;;19.67;46.84;101480.81;5013206;28;8809;-59
2021/01/22 06:39:38;;;;;;;;;0.00;0.00;20.50;62.70;;;19.65;46.92;101470.19;5029104;28;8802;-59
2021/01/22 06:42:06;;;;;;;;;0.00;0.00;20.70;62.90;;;19.64;47.19;101459.59;5011567;28;8806;-59
2021/01/22 06:44:33;;;;;;;;;0.00;0.00;20.40;62.70;;;19.62;47.00;101461.59;5021446;28;8860;-59
2021/01/22 06:47:12;;;;;;;;;0.00;0.00;20.50;62.80;;;19.60;46.92;101459.06;5023907;28;8899;-59
2021/01/22 06:49:41;;;;;;;;;0.00;0.00;20.50;62.80;;;19.58;47.02;101455.66;5028768;28;8770;-59
2021/01/22 06:52:13;;;;;;;;;0.00;0.00;20.50;62.80;;;19.56;47.03;101444.22;5030010;28;8856;-60
2021/01/22 06:54:58;;;;;;;;;0.00;0.00;20.40;62.80;;;19.55;46.98;101444.41;5021027;28;8851;-60
2021/01/22 06:57:25;;;;;;;;;0.00;0.00;20.30;62.70;;;19.52;46.90;101435.66;5027202;28;8812;-59
2021/01/22 06:59:52;;;;;;;;;0.00;0.00;20.40;62.60;;;19.52;46.91;101435.66;5010104;28;8794;-59
2021/01/22 07:02:37;;;;;;;;;0.00;0.00;20.40;62.50;;;19.50;46.93;101415.34;5018778;28;8812;-59
2021/01/22 07:05:24;;;;;;;;;0.00;0.00;20.50;62.60;;;19.48;47.14;101406.59;5019778;28;8819;-60
2021/01/22 07:07:51;;;;;;;;;1.00;1.00;20.40;62.50;;;19.47;46.95;101421.84;5033831;28;8949;-59
2021/01/22 07:10:17;;;;;;;;;1.00;0.00;20.20;62.60;;;19.45;46.98;101413.09;5029963;28;8789;-60
2021/01/22 07:12:45;;;;;;;;;0.00;0.00;20.40;62.60;;;19.44;46.88;101399.84;5013654;28;9350;-59
2021/01/22 07:15:21;;;;;;;;;0.00;0.00;20.40;62.60;;;19.45;47.01;101394.34;5028059;28;8837;-58
2021/01/22 07:18:04;;;;;;;;;1.25;1.00;20.20;62.90;;;19.47;47.09;101381.63;5016999;28;8830;-60
2021/01/22 07:20:31;;;;;;;;;0.00;0.00;20.30;63.00;;;19.46;47.14;101369.25;5021973;28;8802;-59
2021/01/22 07:23:01;;;;;;;;;0.50;0.00;20.40;63.20;;;19.45;47.07;101364.84;5022273;28;9636;-59
2021/01/22 07:25:40;;;;;;;;;0.00;0.00;20.40;63.10;;;19.45;47.27;101364.03;5014412;28;8808;-59
2021/01/22 07:28:13;;;;;;;;;2.50;0.00;20.50;63.30;;;19.44;47.55;101373.06;5026343;28;8834;-60
2021/01/22 07:30:41;;;;;;;;;0.00;0.00;20.10;63.20;;;19.42;47.40;101396.47;5013680;28;8824;-59
2021/01/22 07:33:26;;;;;;;;;1.00;1.00;20.30;63.40;;;19.40;47.58;101382.38;5017884;28;8830;-59
2021/01/22 07:36:19;;;;;;;;;1.75;0.75;20.30;63.40;;;19.38;47.68;101376.31;5032644;28;8821;-59
2021/01/22 07:38:51;;;;;;;;;0.25;0.25;20.30;63.40;;;19.38;47.79;101373.63;5019832;28;8890;-59
2021/01/22 07:41:22;;;;;;;;;0.50;0.00;20.30;63.50;;;19.35;47.81;101366.72;5024110;28;8927;-59
2021/01/22 07:44:03;;;;;;;;;0.00;0.00;20.20;63.50;;;19.34;47.85;101358.84;5024447;28;8814;-59
2021/01/22 07:46:44;;;;;;;;;1.00;0.00;20.40;63.60;;;19.32;47.75;101352.78;5028278;28;8826;-59
2021/01/22 07:49:11;;;;;;;;;0.00;0.00;20.30;63.70;;;19.33;47.94;101349.94;5027032;28;8795;-59
2021/01/22 07:51:39;;;;;;;;;0.50;0.00;20.30;63.80;;;19.32;47.93;101340.22;5030893;28;8875;-59
2021/01/22 07:54:08;;;;;;;;;2.00;0.00;20.00;63.50;;;19.29;47.93;101343.19;4996897;28;8819;-59
2021/01/22 07:56:40;;;;;;;;;1.00;1.00;20.20;63.80;;;19.27;48.08;101346.00;5023382;28;8779;-59
2021/01/22 07:59:10;;;;;;;;;0.00;0.00;20.30;63.90;;;19.27;48.09;101337.13;5018632;28;8818;-59
2021/01/22 08:01:37;;;;;;;;;0.00;0.00;20.20;63.80;;;19.26;47.82;101320.22;5022089;28;8770;-60
2021/01/22 08:04:05;;;;;;;;;0.25;0.25;20.10;63.80;;;19.24;48.00;101326.72;5022057;28;8904;-59
2021/01/22 08:06:51;;;;;;;;;0.75;0.75;20.10;63.80;;;19.24;48.11;101351.66;5024137;28;8818;-59
2021/01/22 08:09:18;;;;;;;;;1.00;1.00;20.20;64.10;;;19.23;48.38;101341.06;5031639;28;8792;-59
2021/01/22 08:11:52;;;;;;;;;0.50;0.00;20.20;64.10;;;19.21;48.31;101325.16;5029105;28;8807;-59
2021/01/22 08:14:31;;;;;;;;;0.00;0.00;20.20;64.10;;;19.20;48.38;101328.81;5028295;28;8806;-58
2021/01/22 08:17:00;;;;;;;;;2.50;0.00;20.10;64.10;;;19.18;48.45;101327.28;5025599;28;9544;-59
2021/01/22 08:19:27;;;;;;;;;1.75;0.00;20.20;64.10;;;19.17;48.38;101329.09;4998065;28;8898;-59
2021/01/22 08:21:54;;;;;;;;;0.00;0.00;20.20;64.10;;;19.15;48.38;101340.97;5027402;28;8987;-59
2021/01/22 08:24:22;;;;;;;;;1.00;0.00;20.00;64.00;;;19.15;48.58;101340.97;5007999;28;8820;-59
2021/01/22 08:27:06;;;;;;;;;0.00;0.00;20.10;64.10;;;19.13;48.66;101338.41;5006728;28;8803;-59
2021/01/22 08:29:34;;;;;;;;;3.50;0.25;20.00;64.10;;;19.12;48.63;101341.25;5030263;28;8790;-59
2021/01/22 08:32:04;;;;;;;;;0.00;0.00;19.90;64.10;;;19.11;48.71;101335.06;5010821;28;8800;-59
2021/01/22 08:34:35;;;;;;;;;1.75;1.00;20.00;64.10;;;19.11;48.61;101336.88;5027222;28;8924;-59
2021/01/22 08:37:02;;;;;;;;;1.75;1.00;20.00;64.10;;;19.08;48.69;101327.28;5017168;28;8797;-59
2021/01/22 08:39:59;;;;;;;;;0.00;0.00;20.00;64.10;;;19.07;48.84;101331.81;5023161;28;8913;-59
2021/01/22 08:42:28;;;;;;;;;1.50;1.25;20.20;64.30;;;19.06;48.80;101329.28;5016401;28;8800;-59
2021/01/22 08:45:04;;;;;;;;;0.75;0.75;20.00;64.10;;;19.06;48.69;101342.69;5022183;28;8807;-59
2021/01/22 08:47:41;;;;;;;;;1.75;1.75;20.00;64.20;;;19.03;48.82;101342.94;5020686;28;8788;-58
2021/01/22 08:50:09;;;;;;;;;0.75;0.75;20.00;64.20;;;19.03;48.84;101338.44;5019542;28;8825;-59
2021/01/22 08:52:36;;;;;;;;;1.00;1.00;20.00;64.40;;;19.02;48.94;101334.06;5019041;28;8784;-59
2021/01/22 08:55:03;;;;;;;;;1.50;1.50;19.80;64.20;;;19.01;48.79;101328.88;5017511;28;8956;-58
2021/01/22 08:57:30;;;;;;;;;1.75;1.75;20.00;64.30;;;18.99;48.95;101329.00;5020957;28;8836;-58
2021/01/22 08:59:59;;;;;;;;;1.25;1.00;20.00;64.40;;;19.00;49.02;101321.81;5025492;28;8829;-58
2021/01/22 09:02:40;;;;;;;;;1.50;1.50;20.00;64.40;;;18.98;49.00;101321.09;5027569;28;8894;-58
2021/01/22 09:05:10;;;;;;;;;2.25;2.25;19.90;64.40;;;18.96;48.88;101309.72;5012285;28;8780;-58
2021/01/22 09:07:39;;;;;;;;;3.25;2.25;19.90;64.40;;;18.94;48.85;101312.53;5018032;28;8805;-58
2021/01/22 09:10:31;;;;;;;;;2.25;2.25;19.90;64.40;;;18.94;48.93;101303.66;5021137;28;8899;-58
2021/01/22 09:13:13;;;;;;;;;2.75;1.75;19.80;64.30;;;18.93;49.03;101289.44;5016534;28;8926;-57
2021/01/22 09:15:44;;;;;;;;;2.00;1.75;19.90;64.40;;;18.93;49.02;101293.91;5031006;28;8810;-58
2021/01/22 09:18:21;;;;;;;;;1.00;1.00;19.80;64.40;;;18.91;48.97;101283.38;5033330;28;8786;-59
2021/01/22 09:21:07;;;;;;;;;1.75;1.00;19.90;64.40;;;18.91;49.17;101285.19;5033105;28;8813;-59
2021/01/22 09:23:36;;;;;;;;;1.00;1.00;19.80;64.50;;;18.89;49.10;101284.50;5035930;28;8913;-59
2021/01/22 09:26:04;;;;;;;;;1.00;1.00;20.00;64.70;;;18.90;49.11;101280.81;5035067;28;8782;-58
2021/01/22 09:28:31;;;;;;;;;2.25;1.25;19.70;64.60;;;18.87;49.29;101281.94;5032656;28;8820;-58
2021/01/22 09:30:58;;;;;;;;;1.00;1.00;19.60;64.60;;;18.84;49.45;101291.09;5022527;28;8796;-59
2021/01/22 09:33:24;;;;;;;;;1.00;1.00;19.90;64.80;;;18.84;49.40;101291.09;5020539;28;8820;-58
2021/01/22 09:35:52;;;;;;;;;1.00;1.00;19.80;64.70;;;18.84;49.49;101293.78;5021389;28;8838;-59
2021/01/22 09:38:19;;;;;;;;;2.00;2.00;19.60;64.70;;;18.84;49.37;101300.97;5027200;28;8823;-59
2021/01/22 09:40:45;;;;;;;;;1.00;1.00;19.60;64.70;;;18.82;49.32;101289.56;5015879;28;8797;-59
2021/01/22 09:43:15;;;;;;;;;1.25;1.25;19.80;64.80;;;18.81;49.22;101283.38;5015761;28;8914;-59
2021/01/22 09:45:42;;;;;;;;;2.00;2.00;19.60;64.70;;;18.80;49.43;101295.06;5016154;28;8998;-59
2021/01/22 09:48:09;;;;;;;;;2.00;2.00;19.80;64.80;;;18.80;49.23;101280.81;5015886;28;8823;-58
2021/01/22 09:50:36;;;;;;;;;2.00;2.00;19.70;64.80;;;18.78;49.44;101281.00;5015684;28;8803;-58
2021/01/22 09:53:03;;;;;;;;;3.00;3.00;19.50;64.60;;;18.79;49.27;101269.28;5015725;28;8826;-58
2021/01/22 09:55:29;;;;;;;;;3.00;3.00;19.90;64.80;;;18.77;49.24;101257.88;5019861;28;8762;-59
2021/01/22 09:57:56;;;;;;;;;4.25;4.25;19.90;64.80;;;18.75;49.16;101257.19;5033362;28;8833;-59
2021/01/22 10:00:23;;;;;;;;;3.50;3.50;19.90;64.70;;;18.76;49.28;101261.53;5029596;28;8786;-59
2021/01/22 10:02:50;;;;;;;;;7.25;6.25;19.70;64.70;;;18.76;49.24;101271.41;5025142;28;9513;-59
2021/01/22 10:05:17;;;;;;;;;5.75;5.75;19.60;64.60;;;18.73;49.21;101269.00;5032018;28;9598;-59
2021/01/22 10:07:44;;;;;;;;;5.25;5.25;19.70;64.70;;;18.73;49.53;101260.97;5018810;28;8804;-59
2021/01/22 10:10:12;;;;;;;;;4.00;4.00;19.90;64.80;;;18.71;49.25;101268.28;5031506;28;8910;-59
2021/01/22 10:12:39;;;;;;;;;3.00;3.00;19.60;64.70;;;18.70;49.15;101271.94;5033839;28;8877;-58
2021/01/22 10:15:06;;;;;;;;;4.25;3.25;19.80;64.90;;;18.69;49.50;101262.22;5044371;28;8777;-58
2021/01/22 10:17:33;;;;;;;;;2.50;2.50;19.60;64.80;;;18.68;49.46;101269.41;4998548;28;8781;-58
2021/01/22 10:20:00;;;;;;;;;2.75;2.75;19.60;64.80;;;18.67;49.42;101267.72;5027360;28;9704;-58
2021/01/22 10:22:27;;;;;;;;;1.50;1.50;19.60;64.80;;;18.69;49.23;101271.09;5032828;28;8798;-59
2021/01/22 10:24:54;;;;;;;;;2.50;2.50;19.60;64.80;;;18.66;49.55;101268.72;5031136;28;8925;-59
2021/01/22 10:27:20;;;;;;;;;2.00;2.00;19.50;64.80;;;18.66;49.55;101263.34;5031971;28;8848;-58
2021/01/22 10:29:47;;;;;;;;;2.25;2.25;19.60;65.00;;;18.66;49.62;101266.03;5033700;28;8898;-58
2021/01/22 10:32:14;;;;;;;;;1.25;1.25;19.70;65.00;;;18.64;49.39;101246.59;5033591;28;8786;-59